createdAt,value
2022-12-08T00:03:44.699Z,2.70
2022-12-08T00:09:46.479Z,2.70
2022-12-08T00:15:48.169Z,2.70
2022-12-08T00:21:50.116Z,2.60
2022-12-08T00:27:51.772Z,2.70
2022-12-08T00:33:53.509Z,2.70
2022-12-08T00:39:55.169Z,2.70
2022-12-08T00:53:06.375Z,2.60
2022-12-08T00:59:08.307Z,2.60
2022-12-08T01:05:12.222Z,2.60
2022-12-08T01:11:15.151Z,2.70
2022-12-08T01:17:16.808Z,2.70
2022-12-08T01:23:18.431Z,2.70
2022-12-08T01:29:20.195Z,2.60
2022-12-08T01:35:21.823Z,2.60
2022-12-08T01:41:24.736Z,2.50
2022-12-08T01:47:29.854Z,2.50
2022-12-08T01:53:32.861Z,2.40
2022-12-08T01:59:36.703Z,2.40
2022-12-08T02:05:39.872Z,2.40
2022-12-08T02:11:41.457Z,2.30
2022-12-08T02:18:08.163Z,2.20
2022-12-08T02:24:18.921Z,2.20
2022-12-08T02:30:43.639Z,2.20
2022-12-08T02:37:03.773Z,2.30
2022-12-08T02:43:28.691Z,2.30
2022-12-08T02:49:33.673Z,2.30
2022-12-08T02:55:38.131Z,2.50
2022-12-08T03:02:03.584Z,2.50
2022-12-08T03:08:16.716Z,2.50
2022-12-08T03:14:19.456Z,2.60
2022-12-08T03:20:22.912Z,2.70
2022-12-08T03:26:27.516Z,2.60
2022-12-08T03:32:32.926Z,2.70
2022-12-08T03:38:53.520Z,2.60
2022-12-08T03:44:55.161Z,2.50
2022-12-08T03:50:56.762Z,2.60
2022-12-08T03:56:58.418Z,2.60
2022-12-08T04:03:00.189Z,2.70
2022-12-08T04:09:01.961Z,2.70
2022-12-08T04:15:03.686Z,2.60
2022-12-08T04:21:05.476Z,2.60
2022-12-08T04:27:07.236Z,2.60
2022-12-08T04:33:08.915Z,2.60
2022-12-08T04:39:10.501Z,2.70
2022-12-08T04:45:12.169Z,2.70
2022-12-08T04:51:17.856Z,2.70
2022-12-08T04:57:19.877Z,2.60
2022-12-08T05:03:26.862Z,2.40
2022-12-08T05:09:30.248Z,2.30
2022-12-08T05:15:31.869Z,2.10
2022-12-08T05:21:33.577Z,2.10
2022-12-08T05:27:35.258Z,2.10
2022-12-08T05:33:36.926Z,2.20
2022-12-08T05:39:38.525Z,2.40
2022-12-08T05:45:40.187Z,2.40
2022-12-08T05:51:41.916Z,2.50
2022-12-08T05:57:43.625Z,2.60
2022-12-08T06:03:45.258Z,2.60
2022-12-08T06:09:46.954Z,2.60
2022-12-08T06:15:48.699Z,2.60
2022-12-08T06:21:50.358Z,2.70
2022-12-08T06:27:52.254Z,2.60
2022-12-08T06:33:54.386Z,2.70
2022-12-08T06:39:56.816Z,2.60
2022-12-08T06:45:58.954Z,2.60
2022-12-08T06:52:00.589Z,2.60
2022-12-08T06:58:02.210Z,2.70
2022-12-08T07:04:03.881Z,2.60
2022-12-08T07:10:05.982Z,2.70
2022-12-08T07:16:08.997Z,2.70
2022-12-08T07:22:10.599Z,2.70
2022-12-08T07:28:12.302Z,2.80
2022-12-08T07:34:13.955Z,2.80
2022-12-08T07:40:15.766Z,2.80
2022-12-08T07:46:19.372Z,2.90
2022-12-08T07:52:21.068Z,2.80
2022-12-08T07:58:22.688Z,2.80
2022-12-08T08:04:24.457Z,2.80
2022-12-08T08:10:26.171Z,2.90
2022-12-08T08:16:29.190Z,2.90
2022-12-08T08:22:32.850Z,2.90
2022-12-08T08:28:34.550Z,3.00
2022-12-08T08:34:36.241Z,2.90
2022-12-08T08:40:37.879Z,2.90
2022-12-08T08:46:39.561Z,2.90
2022-12-08T08:52:41.188Z,2.90
2022-12-08T08:58:42.840Z,2.90
2022-12-08T09:04:45.198Z,3.00
2022-12-08T09:10:46.849Z,2.90
2022-12-08T09:16:48.614Z,3.00
2022-12-08T09:22:52.054Z,3.00
2022-12-08T09:28:54.624Z,3.00
2022-12-08T09:34:56.436Z,3.10
2022-12-08T09:41:02.209Z,3.10
2022-12-08T09:47:05.859Z,3.20
2022-12-08T09:53:19.448Z,3.30
2022-12-08T09:59:22.841Z,3.30
2022-12-08T10:05:26.107Z,3.40
2022-12-08T10:11:39.921Z,3.40
2022-12-08T10:17:44.662Z,3.40
2022-12-08T10:23:49.543Z,3.50
2022-12-08T10:29:51.259Z,3.50
2022-12-08T10:35:54.154Z,3.50
2022-12-08T10:42:16.020Z,3.50
2022-12-08T10:48:20.636Z,3.50
2022-12-08T10:54:25.285Z,3.70
2022-12-08T11:00:27.830Z,3.70
2022-12-08T11:06:35.007Z,3.60
2022-12-08T11:12:37.577Z,3.60
2022-12-08T11:18:40.626Z,3.70
2022-12-08T11:24:42.224Z,3.60
2022-12-08T11:30:46.811Z,3.60
2022-12-08T11:36:49.657Z,3.70
2022-12-08T11:43:06.695Z,3.60
2022-12-08T11:49:10.982Z,3.60
2022-12-08T11:55:37.341Z,3.60
2022-12-08T12:01:42.884Z,3.60
2022-12-08T12:08:17.070Z,3.70
2022-12-08T12:14:30.736Z,3.60
2022-12-08T12:20:37.407Z,3.60
2022-12-08T12:26:48.892Z,3.70
2022-12-08T12:32:53.844Z,3.50
2022-12-08T12:39:01.575Z,3.50
2022-12-08T12:45:20.027Z,3.50
2022-12-08T12:51:39.812Z,3.60
2022-12-08T12:57:51.861Z,3.60
2022-12-08T13:04:05.836Z,3.70
2022-12-08T13:10:18.885Z,3.60
2022-12-08T13:16:23.136Z,3.60
2022-12-08T13:22:43.414Z,3.60
2022-12-08T13:29:01.366Z,3.60
2022-12-08T13:35:04.317Z,3.60
2022-12-08T13:41:09.212Z,3.60
2022-12-08T14:00:01.094Z,3.40
2022-12-08T14:06:12.220Z,3.30
2022-12-08T14:12:18.501Z,3.20
2022-12-08T14:18:24.627Z,3.30
2022-12-08T14:24:27.256Z,3.20
2022-12-08T14:30:31.158Z,3.10
2022-12-08T14:36:33.807Z,3.00
2022-12-08T14:42:43.678Z,3.10
2022-12-08T14:48:45.460Z,2.90
2022-12-08T14:54:49.842Z,2.80
2022-12-08T15:00:54.458Z,2.80
2022-12-08T15:07:02.134Z,2.70
2022-12-08T15:13:05.756Z,2.60
2022-12-08T15:19:28.254Z,2.60
2022-12-08T15:25:30.016Z,2.60
2022-12-08T15:31:31.630Z,2.50
2022-12-08T15:37:33.350Z,2.50
2022-12-08T15:43:35.787Z,2.40
2022-12-08T15:49:37.587Z,2.40
2022-12-08T15:55:39.909Z,2.30
2022-12-08T16:01:44.907Z,2.20
2022-12-08T16:07:46.783Z,2.10
2022-12-08T16:14:16.625Z,2.00
2022-12-08T16:20:18.115Z,2.00
2022-12-08T16:27:01.167Z,1.90
2022-12-08T16:32:42.523Z,1.80
2022-12-08T16:38:44.192Z,1.80
2022-12-08T16:44:45.828Z,1.70
2022-12-08T16:50:47.428Z,1.60
2022-12-08T16:56:49.121Z,1.70
2022-12-08T17:02:51.210Z,1.60
2022-12-08T17:08:52.817Z,1.60
2022-12-08T17:14:54.431Z,1.50
2022-12-08T17:20:56.051Z,1.40
2022-12-08T17:26:58.321Z,1.50
2022-12-08T17:32:59.953Z,1.70
2022-12-08T17:39:01.950Z,1.80
2022-12-08T17:45:04.093Z,1.80
2022-12-08T17:51:08.861Z,1.90
2022-12-08T17:57:10.515Z,1.90
2022-12-08T18:03:12.179Z,1.90
2022-12-08T18:09:14.274Z,1.90
2022-12-08T18:15:17.675Z,1.90
2022-12-08T18:21:23.347Z,1.70
2022-12-08T18:27:25.366Z,1.60
2022-12-08T18:33:27.050Z,1.40
2022-12-08T18:39:29.944Z,1.40
2022-12-08T18:45:31.659Z,1.40
2022-12-08T18:51:33.265Z,1.40
2022-12-08T18:57:36.566Z,1.50
2022-12-08T19:03:43.125Z,1.60
2022-12-08T19:09:56.126Z,1.70
2022-12-08T19:15:57.792Z,1.70
2022-12-08T19:21:59.594Z,1.80
2022-12-08T19:28:01.267Z,1.80
2022-12-08T19:34:03.199Z,1.80
2022-12-08T19:40:23.783Z,1.70
2022-12-08T19:46:26.191Z,1.70
2022-12-08T19:52:27.969Z,1.60
2022-12-08T19:58:29.716Z,1.50
2022-12-08T20:04:31.354Z,1.50
2022-12-08T20:10:34.424Z,1.50
2022-12-08T20:16:36.166Z,1.40
2022-12-08T20:22:37.850Z,1.20
2022-12-08T20:28:39.704Z,1.00
2022-12-08T20:34:41.325Z,0.80
2022-12-08T20:40:43.996Z,0.70
2022-12-08T20:46:49.373Z,0.50
2022-12-08T20:52:51.488Z,0.50
2022-12-08T20:58:53.694Z,0.50
2022-12-08T21:04:55.366Z,0.40
2022-12-08T21:10:57.443Z,0.50
2022-12-08T21:16:59.173Z,0.60
2022-12-08T21:23:01.212Z,0.70
2022-12-08T21:29:02.975Z,0.80
2022-12-08T21:35:05.364Z,0.90
2022-12-08T21:41:11.702Z,0.90
2022-12-08T21:47:13.420Z,1.00
2022-12-08T21:53:15.329Z,1.10
2022-12-08T21:59:17.786Z,1.20
2022-12-08T22:05:19.616Z,1.20
2022-12-08T22:11:21.459Z,1.30
2022-12-08T22:17:23.322Z,1.30
2022-12-08T22:23:25.340Z,1.40
2022-12-08T22:29:27.327Z,1.40
2022-12-08T22:35:29.053Z,1.30
2022-12-08T22:41:31.029Z,1.00
2022-12-08T22:47:32.850Z,0.90
2022-12-08T22:53:34.677Z,0.70
2022-12-08T22:59:37.565Z,0.60
2022-12-08T23:05:40.623Z,0.50
2022-12-08T23:11:44.259Z,0.50
2022-12-08T23:17:46.187Z,0.40
2022-12-08T23:23:48.097Z,0.50
2022-12-08T23:29:49.854Z,0.40
2022-12-08T23:35:58.072Z,0.30
2022-12-08T23:42:01.119Z,0.40
2022-12-08T23:48:02.787Z,0.30
2022-12-08T23:54:07.541Z,0.20
